createdAt,value
2022-11-16T00:02:05.853Z,95860.09
2022-11-16T00:04:32.268Z,95851.20
2022-11-16T00:06:58.677Z,95847.64
2022-11-16T00:09:28.025Z,95855.16
2022-11-16T00:11:57.478Z,95863.98
2022-11-16T00:14:27.113Z,95869.56
2022-11-16T00:16:53.932Z,95869.61
2022-11-16T00:19:20.614Z,95862.94
2022-11-16T00:21:47.209Z,95866.30
2022-11-16T00:24:16.814Z,95865.55
2022-11-16T00:26:43.861Z,95868.27
2022-11-16T00:29:15.211Z,95874.83
2022-11-16T00:31:43.337Z,95869.63
2022-11-16T00:34:09.972Z,95865.36
2022-11-16T00:36:36.356Z,95863.04
2022-11-16T00:39:03.497Z,95854.00
2022-11-16T00:41:29.949Z,95849.81
2022-11-16T00:43:56.469Z,95845.18
2022-11-16T00:46:23.265Z,95840.48
2022-11-16T00:48:49.708Z,95842.36
2022-11-16T00:51:16.141Z,95843.87
2022-11-16T00:53:42.519Z,95841.77
2022-11-16T00:56:08.967Z,95836.92
2022-11-16T00:58:41.192Z,95833.94
2022-11-16T01:01:10.756Z,95833.09
2022-11-16T01:03:38.164Z,95826.06
2022-11-16T01:06:07.964Z,95824.42
2022-11-16T01:08:37.202Z,95819.99
2022-11-16T01:11:16.836Z,95818.95
2022-11-16T01:13:43.847Z,95810.39
2022-11-16T01:16:14.731Z,95804.98
2022-11-16T01:18:43.000Z,95798.22
2022-11-16T01:21:09.972Z,95790.45
2022-11-16T01:23:36.523Z,95787.52
2022-11-16T01:26:03.396Z,95784.32
2022-11-16T01:28:33.545Z,95779.91
2022-11-16T01:31:00.654Z,95771.77
2022-11-16T01:33:28.664Z,95766.74
2022-11-16T01:35:55.394Z,95769.77
2022-11-16T01:38:27.227Z,95769.35
2022-11-16T01:40:56.405Z,95765.30
2022-11-16T01:43:26.435Z,95769.91
2022-11-16T01:45:58.508Z,95780.17
2022-11-16T01:48:32.035Z,95778.45
2022-11-16T01:50:59.078Z,95773.63
2022-11-16T01:53:27.430Z,95769.14
2022-11-16T01:55:56.073Z,95766.83
2022-11-16T01:58:27.722Z,95765.14
2022-11-16T02:00:59.801Z,95761.88
2022-11-16T02:03:30.284Z,95762.86
2022-11-16T02:06:30.788Z,95760.21
2022-11-16T02:09:50.614Z,95755.72
2022-11-16T02:12:40.833Z,95753.89
2022-11-16T02:15:29.891Z,95749.79
2022-11-16T02:18:29.455Z,95750.58
2022-11-16T02:21:17.095Z,95746.48
2022-11-16T02:24:11.995Z,95738.13
2022-11-16T02:27:04.069Z,95733.77
2022-11-16T02:29:45.554Z,95727.61
2022-11-16T02:32:24.205Z,95720.69
2022-11-16T02:35:12.247Z,95714.70
2022-11-16T02:37:45.403Z,95707.95
2022-11-16T02:40:15.024Z,95708.27
2022-11-16T02:42:48.105Z,95701.05
2022-11-16T02:45:21.593Z,95700.40
2022-11-16T02:47:51.212Z,95702.67
2022-11-16T02:50:20.815Z,95704.64
2022-11-16T02:52:47.251Z,95699.21
2022-11-16T02:55:14.461Z,95696.92
2022-11-16T02:57:56.708Z,95696.15
2022-11-16T03:00:27.305Z,95697.48
2022-11-16T03:03:15.831Z,95697.95
2022-11-16T03:05:51.981Z,95702.75
2022-11-16T03:08:26.449Z,95704.69
2022-11-16T03:11:14.496Z,95698.59
2022-11-16T03:13:42.511Z,95698.17
2022-11-16T03:16:18.716Z,95691.09
2022-11-16T03:18:48.935Z,95682.55
2022-11-16T03:21:28.205Z,95674.27
2022-11-16T03:23:54.966Z,95667.77
2022-11-16T03:26:25.904Z,95668.73
2022-11-16T03:29:12.646Z,95673.84
2022-11-16T03:31:48.252Z,95667.27
2022-11-16T03:34:19.605Z,95661.13
2022-11-16T03:36:49.519Z,95656.46
2022-11-16T03:39:22.654Z,95647.05
2022-11-16T03:41:50.028Z,95644.46
2022-11-16T03:44:19.261Z,95644.42
2022-11-16T03:46:46.899Z,95636.63
2022-11-16T03:49:13.698Z,95644.70
2022-11-16T03:51:40.402Z,95640.69
2022-11-16T03:54:07.040Z,95646.77
2022-11-16T03:56:34.185Z,95646.79
2022-11-16T03:59:02.116Z,95644.61
2022-11-16T04:01:28.981Z,95639.33
2022-11-16T04:03:55.542Z,95634.88
2022-11-16T04:06:39.485Z,95635.38
2022-11-16T04:09:13.255Z,95637.51
2022-11-16T04:11:50.087Z,95632.19
2022-11-16T04:14:30.346Z,95627.27
2022-11-16T04:17:10.667Z,95623.39
2022-11-16T04:19:56.744Z,95623.92
2022-11-16T04:22:41.020Z,95613.36
2022-11-16T04:25:15.390Z,95600.48
2022-11-16T04:28:01.314Z,95601.48
2022-11-16T04:30:47.813Z,95594.88
2022-11-16T04:33:31.646Z,95593.68
2022-11-16T04:36:15.371Z,95592.59
2022-11-16T04:38:44.420Z,95593.54
2022-11-16T04:41:30.796Z,95590.33
2022-11-16T04:43:57.918Z,95591.55
2022-11-16T04:46:42.409Z,95594.89
2022-11-16T04:49:09.344Z,95588.20
2022-11-16T04:51:35.842Z,95583.63
2022-11-16T04:54:02.362Z,95580.23
2022-11-16T04:56:31.845Z,95586.39
2022-11-16T04:58:58.808Z,95585.52
2022-11-16T05:01:43.713Z,95585.98
2022-11-16T05:04:10.460Z,95585.98
2022-11-16T05:06:37.165Z,95580.78
2022-11-16T05:09:03.992Z,95582.25
2022-11-16T05:11:30.661Z,95586.75
2022-11-16T05:13:58.078Z,95577.41
2022-11-16T05:16:24.776Z,95573.70
2022-11-16T05:19:04.409Z,95577.45
2022-11-16T05:21:37.846Z,95585.56
2022-11-16T05:24:25.382Z,95582.70
2022-11-16T05:26:52.212Z,95580.23
2022-11-16T05:29:18.635Z,95578.00
2022-11-16T05:31:45.299Z,95571.55
2022-11-16T05:34:13.303Z,95569.68
2022-11-16T05:36:40.352Z,95578.40
2022-11-16T05:39:06.885Z,95571.48
2022-11-16T05:41:35.177Z,95570.13
2022-11-16T05:44:03.257Z,95572.27
2022-11-16T05:46:29.684Z,95571.23
2022-11-16T05:48:57.231Z,95567.80
2022-11-16T05:51:24.150Z,95563.88
2022-11-16T05:53:51.305Z,95568.13
2022-11-16T05:56:20.845Z,95570.30
2022-11-16T05:58:47.916Z,95561.99
2022-11-16T06:01:14.711Z,95557.48
2022-11-16T06:03:41.394Z,95554.83
2022-11-16T06:06:08.657Z,95552.08
2022-11-16T06:08:36.231Z,95549.48
2022-11-16T06:11:09.196Z,95548.70
2022-11-16T06:13:36.433Z,95551.69
2022-11-16T06:16:04.428Z,95541.72
2022-11-16T06:18:31.570Z,95532.98
2022-11-16T06:20:58.456Z,95534.48
2022-11-16T06:23:25.439Z,95540.26
2022-11-16T06:25:59.818Z,95541.77
2022-11-16T06:28:27.477Z,95542.05
2022-11-16T06:30:59.119Z,95541.46
2022-11-16T06:33:30.905Z,95542.98
2022-11-16T06:36:00.681Z,95542.38
2022-11-16T06:38:27.598Z,95541.25
2022-11-16T06:40:58.475Z,95539.88
2022-11-16T06:43:26.788Z,95540.32
2022-11-16T06:45:57.754Z,95535.48
2022-11-16T06:48:24.701Z,95539.77
2022-11-16T06:50:53.986Z,95545.23
2022-11-16T06:53:28.945Z,95547.73
2022-11-16T06:56:11.556Z,95555.39
2022-11-16T06:58:43.042Z,95547.30
2022-11-16T07:01:11.384Z,95530.27
2022-11-16T07:03:41.650Z,95533.35
2022-11-16T07:06:21.410Z,95546.70
2022-11-16T07:09:11.189Z,95540.39
2022-11-16T07:11:40.345Z,95534.08
2022-11-16T07:14:07.144Z,95537.13
2022-11-16T07:16:35.639Z,95538.44
2022-11-16T07:19:03.173Z,95536.67
2022-11-16T07:21:31.232Z,95532.08
2022-11-16T07:24:05.234Z,95525.89
2022-11-16T07:26:36.947Z,95529.27
2022-11-16T07:29:08.818Z,95524.82
2022-11-16T07:31:47.038Z,95520.05
2022-11-16T07:35:17.375Z,95520.30
2022-11-16T07:38:16.774Z,95515.60
2022-11-16T07:41:07.097Z,95511.40
2022-11-16T07:44:12.229Z,95511.17
2022-11-16T07:47:17.790Z,95506.25
2022-11-16T07:49:55.908Z,95504.63
2022-11-16T07:52:50.011Z,95499.79
2022-11-16T07:55:49.013Z,95497.33
2022-11-16T07:59:30.229Z,95496.15
2022-11-16T08:38:20.903Z,95464.29
2022-11-16T08:41:00.989Z,95461.83
2022-11-16T08:43:40.783Z,95463.41
2022-11-16T08:46:17.722Z,95461.11
2022-11-16T08:48:47.782Z,95465.08
2022-11-16T08:51:20.860Z,95461.20
2022-11-16T08:53:56.566Z,95464.27
2022-11-16T08:56:26.780Z,95463.68
2022-11-16T08:58:58.374Z,95454.72
2022-11-16T09:01:54.216Z,95454.69
2022-11-16T09:05:25.492Z,95456.58
2022-11-16T09:08:33.985Z,95452.23
2022-11-16T09:11:10.050Z,95452.35
2022-11-16T09:14:10.008Z,95453.80
2022-11-16T09:17:49.018Z,95454.23
2022-11-16T09:20:23.402Z,95457.92
2022-11-16T09:23:14.998Z,95458.29
2022-11-16T09:26:37.717Z,95453.48
2022-11-16T09:50:07.187Z,95442.98
2022-11-16T09:51:02.537Z,95441.41
2022-11-16T09:53:40.155Z,95434.55
2022-11-16T09:56:26.583Z,95425.95
2022-11-16T09:59:11.105Z,95421.55
2022-11-16T10:01:54.696Z,95426.17
2022-11-16T10:04:58.539Z,95420.48
2022-11-16T10:08:38.403Z,95411.39
2022-11-16T10:12:01.031Z,95402.02
2022-11-16T10:14:51.342Z,95397.48
2022-11-16T10:17:37.628Z,95394.38
2022-11-16T10:20:33.265Z,95395.42
2022-11-16T10:23:18.326Z,95388.47
2022-11-16T10:25:48.757Z,95386.15
2022-11-16T10:28:46.469Z,95383.91
2022-11-16T10:31:19.023Z,95383.23
2022-11-16T10:33:49.278Z,95380.91
2022-11-16T10:36:17.378Z,95372.78
2022-11-16T10:38:47.117Z,95363.46
2022-11-16T10:41:39.091Z,95360.55
2022-11-16T10:44:18.886Z,95364.34
2022-11-16T10:47:04.102Z,95365.07
2022-11-16T10:49:39.578Z,95358.65
2022-11-16T10:52:15.615Z,95346.80
2022-11-16T10:54:49.818Z,95351.04
2022-11-16T10:57:29.432Z,95352.32
2022-11-16T11:00:03.154Z,95352.42
2022-11-16T11:02:34.758Z,95344.51
2022-11-16T11:05:24.637Z,95343.63
2022-11-16T11:08:16.186Z,95345.48
2022-11-16T11:10:42.838Z,95339.64
2022-11-16T11:13:29.554Z,95341.05
2022-11-16T11:16:16.752Z,95338.84
2022-11-16T11:19:17.668Z,95336.98
2022-11-16T11:21:46.470Z,95337.03
2022-11-16T11:24:43.286Z,95340.51
2022-11-16T11:27:04.930Z,95337.85
2022-11-16T11:29:36.877Z,95341.23
2022-11-16T11:32:06.596Z,95336.52
2022-11-16T11:34:47.989Z,95333.22
2022-11-16T11:37:19.139Z,95333.44
2022-11-16T11:39:45.902Z,95337.75
2022-11-16T11:42:22.586Z,95337.44
2022-11-16T11:45:52.752Z,95337.54
2022-11-16T11:48:31.066Z,95334.83
2022-11-16T11:51:09.316Z,95332.65
2022-11-16T11:53:52.670Z,95327.01
2022-11-16T11:56:20.279Z,95319.11
2022-11-16T12:10:07.800Z,95301.14
2022-11-16T12:20:02.376Z,95295.98
2022-11-16T12:52:31.035Z,95262.45
2022-11-16T12:56:26.463Z,95262.03
2022-11-16T13:00:08.988Z,95258.88
2022-11-16T13:03:20.175Z,95252.31
2022-11-16T13:06:45.033Z,95253.94
2022-11-16T13:12:32.968Z,95257.71
2022-11-16T13:13:03.930Z,95256.55
2022-11-16T13:15:03.289Z,95257.59
2022-11-16T13:18:21.231Z,95254.14
2022-11-16T13:22:19.677Z,95257.77
2022-11-16T13:28:42.911Z,95254.59
2022-11-16T13:31:41.701Z,95247.16
2022-11-16T13:34:35.197Z,95249.98
2022-11-16T13:38:22.084Z,95241.91
2022-11-16T13:41:18.727Z,95238.08
2022-11-16T13:48:41.753Z,95232.96
2022-11-16T13:51:32.586Z,95229.81
2022-11-16T13:54:47.426Z,95231.33
2022-11-16T13:57:35.365Z,95228.67
2022-11-16T14:00:35.684Z,95229.48
2022-11-16T14:03:31.082Z,95230.55
2022-11-16T14:06:14.019Z,95229.99
2022-11-16T14:09:36.023Z,95224.31
2022-11-16T14:12:43.789Z,95219.44
2022-11-16T14:15:34.126Z,95221.14
2022-11-16T14:21:58.198Z,95218.95
2022-11-16T14:24:39.062Z,95218.77
2022-11-16T14:27:38.007Z,95223.02
2022-11-16T14:30:55.278Z,95219.52
2022-11-16T14:34:50.793Z,95210.98
2022-11-16T14:37:32.446Z,95204.64
2022-11-16T14:40:20.638Z,95209.77
2022-11-16T14:45:54.252Z,95196.94
2022-11-16T14:48:43.907Z,95202.00
2022-11-16T14:51:27.041Z,95201.42
2022-11-16T14:54:01.511Z,95197.71
2022-11-16T14:56:37.415Z,95196.52
2022-11-16T14:59:07.965Z,95192.46
2022-11-16T15:01:41.855Z,95189.77
2022-11-16T15:04:17.584Z,95198.23
2022-11-16T15:06:58.720Z,95196.75
2022-11-16T15:09:34.771Z,95193.66
2022-11-16T15:12:26.891Z,95182.58
2022-11-16T15:15:02.236Z,95189.49
2022-11-16T15:17:36.535Z,95189.57
2022-11-16T15:20:26.671Z,95186.32
2022-11-16T15:22:57.401Z,95187.27
2022-11-16T15:25:32.021Z,95185.33
2022-11-16T15:28:04.561Z,95181.10
2022-11-16T15:30:39.352Z,95180.01
2022-11-16T15:33:20.885Z,95175.58
2022-11-16T15:35:55.412Z,95174.41
2022-11-16T15:38:26.716Z,95179.96
2022-11-16T15:40:56.229Z,95176.00
2022-11-16T15:43:27.045Z,95166.58
2022-11-16T15:45:54.465Z,95166.46
2022-11-16T15:48:23.725Z,95165.62
2022-11-16T15:51:07.154Z,95167.30
2022-11-16T15:53:39.644Z,95168.11
2022-11-16T15:56:30.554Z,95166.95
2022-11-16T15:59:01.308Z,95162.98
2022-11-16T16:01:29.759Z,95160.19
2022-11-16T16:04:04.595Z,95149.58
2022-11-16T16:06:53.280Z,95147.98
2022-11-16T16:09:28.366Z,95147.72
2022-11-16T16:12:16.910Z,95142.87
2022-11-16T16:14:44.674Z,95138.52
2022-11-16T16:17:21.372Z,95134.51
2022-11-16T16:19:58.652Z,95122.95
2022-11-16T16:22:32.072Z,95119.67
2022-11-16T16:25:00.788Z,95120.14
2022-11-16T16:27:29.137Z,95121.56
2022-11-16T16:29:58.333Z,95122.27
2022-11-16T16:32:30.012Z,95120.45
2022-11-16T16:34:58.496Z,95113.52
2022-11-16T16:37:26.645Z,95110.13
2022-11-16T16:39:53.085Z,95109.58
2022-11-16T16:42:19.887Z,95106.31
2022-11-16T16:44:47.995Z,95099.93
2022-11-16T16:47:16.291Z,95103.10
2022-11-16T16:49:42.961Z,95105.91
2022-11-16T16:52:12.069Z,95108.46
2022-11-16T16:54:40.021Z,95101.07
2022-11-16T16:57:11.308Z,95096.00
2022-11-16T16:59:37.846Z,95098.84
2022-11-16T17:02:04.599Z,95098.64
2022-11-16T17:04:32.151Z,95103.80
2022-11-16T17:06:58.650Z,95104.72
2022-11-16T17:09:25.131Z,95101.04
2022-11-16T17:11:51.585Z,95096.66
2022-11-16T17:14:20.720Z,95094.63
2022-11-16T17:16:47.229Z,95097.77
2022-11-16T17:19:13.647Z,95099.50
2022-11-16T17:21:40.119Z,95103.65
2022-11-16T17:24:06.762Z,95106.58
2022-11-16T17:26:33.352Z,95103.33
2022-11-16T17:28:59.907Z,95101.18
2022-11-16T17:31:27.630Z,95099.29
2022-11-16T17:33:56.684Z,95093.85
2022-11-16T17:36:24.349Z,95090.54
2022-11-16T17:38:50.856Z,95097.45
2022-11-16T17:41:20.993Z,95103.38
2022-11-16T17:43:47.488Z,95099.09
2022-11-16T17:46:17.603Z,95094.28
2022-11-16T17:48:46.577Z,95087.51
2022-11-16T17:51:16.325Z,95087.34
2022-11-16T17:53:44.486Z,95081.66
2022-11-16T17:56:13.765Z,95081.64
2022-11-16T17:58:41.259Z,95082.14
2022-11-16T18:01:11.207Z,95080.29
2022-11-16T18:03:38.744Z,95073.75
2022-11-16T18:06:12.703Z,95075.67
2022-11-16T18:08:40.329Z,95069.48
2022-11-16T18:11:13.554Z,95066.33
2022-11-16T18:13:40.319Z,95066.41
2022-11-16T18:16:10.730Z,95065.95
2022-11-16T18:18:38.000Z,95064.89
2022-11-16T18:21:06.033Z,95065.82
2022-11-16T18:23:34.366Z,95063.42
2022-11-16T18:26:33.734Z,95058.98
2022-11-16T18:29:00.423Z,95052.81
2022-11-16T18:31:27.387Z,95049.92
2022-11-16T18:33:54.124Z,95045.64
2022-11-16T18:36:22.216Z,95051.14
2022-11-16T18:38:49.971Z,95051.16
2022-11-16T18:41:20.127Z,95047.40
2022-11-16T18:43:59.607Z,95050.65
2022-11-16T18:46:31.959Z,95046.48
2022-11-16T18:49:03.441Z,95046.17
2022-11-16T18:51:33.491Z,95042.55
2022-11-16T18:54:08.949Z,95039.48
2022-11-16T18:56:58.784Z,95039.20
2022-11-16T18:59:31.296Z,95036.52
2022-11-16T19:02:02.531Z,95041.13
2022-11-16T19:04:29.389Z,95040.98
2022-11-16T19:06:59.035Z,95042.55
2022-11-16T19:09:27.966Z,95039.95
2022-11-16T19:11:54.387Z,95040.46
2022-11-16T19:14:21.018Z,95036.45
2022-11-16T19:16:54.028Z,95042.21
2022-11-16T19:19:23.491Z,95036.98
2022-11-16T19:21:51.190Z,95030.86
2022-11-16T19:24:17.749Z,95033.34
2022-11-16T19:26:44.299Z,95041.23
2022-11-16T19:29:10.879Z,95040.05
2022-11-16T19:31:37.369Z,95030.42
2022-11-16T19:34:07.140Z,95027.45
2022-11-16T19:36:36.288Z,95027.42
2022-11-16T19:39:04.632Z,95024.63
2022-11-16T19:41:31.544Z,95026.77
2022-11-16T19:43:59.671Z,95028.36
2022-11-16T19:46:28.848Z,95026.17
2022-11-16T19:48:56.185Z,95025.30
2022-11-16T19:51:26.068Z,95018.27
2022-11-16T19:53:53.076Z,95019.72
2022-11-16T19:56:21.433Z,95015.00
2022-11-16T19:58:48.778Z,95016.20
2022-11-16T20:01:19.883Z,95013.05
2022-11-16T20:03:47.882Z,95006.33
2022-11-16T20:06:19.395Z,94999.18
2022-11-16T20:08:49.441Z,94992.63
2022-11-16T20:11:19.983Z,94987.60
2022-11-16T20:13:55.003Z,94986.25
2022-11-16T20:16:24.056Z,94985.45
2022-11-16T20:18:54.366Z,94983.30
2022-11-16T20:21:24.487Z,94979.05
2022-11-16T20:23:52.697Z,94983.64
2022-11-16T20:26:20.825Z,94982.54
2022-11-16T20:28:50.467Z,94988.30
2022-11-16T20:31:20.895Z,94979.21
2022-11-16T20:33:54.390Z,94974.53
2022-11-16T20:36:22.462Z,94972.99
2022-11-16T20:38:49.417Z,94969.23
2022-11-16T20:41:18.544Z,94970.68
2022-11-16T20:43:49.252Z,94971.39
2022-11-16T20:46:17.314Z,94967.79
2022-11-16T20:48:44.268Z,94963.23
2022-11-16T20:51:14.072Z,94963.52
2022-11-16T20:53:40.620Z,94957.23
2022-11-16T20:56:08.930Z,94950.36
2022-11-16T20:58:35.556Z,94948.02
2022-11-16T21:01:05.683Z,94941.70
2022-11-16T21:03:33.396Z,94939.48
2022-11-16T21:06:00.742Z,94933.00
2022-11-16T21:08:29.177Z,94929.79
2022-11-16T21:10:56.165Z,94925.42
2022-11-16T21:13:42.291Z,94925.59
2022-11-16T21:16:10.912Z,94919.16
2022-11-16T21:18:39.143Z,94924.76
2022-11-16T21:21:08.240Z,94922.51
2022-11-16T21:23:37.441Z,94917.75
2022-11-16T21:26:07.224Z,94915.50
2022-11-16T21:28:33.800Z,94917.65
2022-11-16T21:31:02.939Z,94921.65
2022-11-16T21:33:29.918Z,94919.56
2022-11-16T21:35:56.458Z,94915.70
2022-11-16T21:38:25.484Z,94911.45
2022-11-16T21:40:51.990Z,94911.69
2022-11-16T21:43:18.495Z,94907.41
2022-11-16T21:45:46.727Z,94904.03
2022-11-16T21:48:13.544Z,94903.19
2022-11-16T21:50:40.526Z,94899.66
2022-11-16T21:53:07.464Z,94896.34
2022-11-16T21:55:33.998Z,94891.88
2022-11-16T21:58:02.857Z,94891.77
2022-11-16T22:00:29.731Z,94888.45
2022-11-16T22:03:29.841Z,94889.92
2022-11-16T22:06:15.547Z,94888.55
2022-11-16T22:08:42.748Z,94887.39
2022-11-16T22:11:11.581Z,94883.30
2022-11-16T22:13:38.374Z,94882.59
2022-11-16T22:16:06.969Z,94873.80
2022-11-16T22:18:34.285Z,94871.66
2022-11-16T22:21:01.692Z,94873.35
2022-11-16T22:23:28.953Z,94869.58
2022-11-16T22:26:04.440Z,94867.31
2022-11-16T22:28:31.985Z,94868.67
2022-11-16T22:31:02.055Z,94864.86
2022-11-16T22:33:28.921Z,94863.48
2022-11-16T22:35:55.688Z,94859.23
2022-11-16T22:38:22.417Z,94859.40
2022-11-16T22:40:51.202Z,94850.80
2022-11-16T22:43:20.523Z,94839.23
2022-11-16T22:45:46.983Z,94834.70
2022-11-16T22:48:13.734Z,94837.32
2022-11-16T22:50:41.338Z,94838.55
2022-11-16T22:53:09.431Z,94838.18
2022-11-16T22:55:37.622Z,94838.11
2022-11-16T22:58:04.838Z,94839.69
2022-11-16T23:00:34.213Z,94844.19
2022-11-16T23:03:05.786Z,94840.79
2022-11-16T23:05:41.875Z,94833.50
2022-11-16T23:08:11.374Z,94826.23
2022-11-16T23:10:59.362Z,94825.03
2022-11-16T23:13:42.787Z,94828.91
2022-11-16T23:16:16.189Z,94824.23
2022-11-16T23:18:49.194Z,94818.95
2022-11-16T23:21:30.242Z,94820.73
2022-11-16T23:24:20.628Z,94815.39
2022-11-16T23:27:00.630Z,94817.61
2022-11-16T23:29:33.329Z,94813.65
2022-11-16T23:32:06.822Z,94802.42
2022-11-16T23:34:35.855Z,94804.43
2022-11-16T23:37:07.484Z,94796.48
2022-11-16T23:39:35.489Z,94793.11
2022-11-16T23:42:22.899Z,94787.77
2022-11-16T23:44:59.840Z,94789.14
2022-11-16T23:47:29.790Z,94791.80
2022-11-16T23:49:59.019Z,94792.30
2022-11-16T23:52:25.618Z,94791.14
2022-11-16T23:54:56.996Z,94790.30
2022-11-16T23:57:23.818Z,94789.40
2022-11-16T23:59:53.282Z,94789.50
